Time;durP1;ratioP1;P1;durP2;ratioP2;P2;SDS_P1;SDS_P2;PMS_P1;PMS_P2;Temp;Humidity;BMP_temperature;BMP_pressure;BME280_temperature;BME280_humidity;BME280_pressure;Samples;Min_cycle;Max_cycle;Signal;HPM_P1;HPM_P2
2021/01/22 00:01:19;;;;;;;1.50;1.10;;;18.00;52.80;;;;;;5084812;28;20701;-59
2021/01/22 00:03:44;;;;;;;1.33;1.00;;;18.00;52.80;;;;;;5084827;28;20525;-55
2021/01/22 00:06:11;;;;;;;0.90;0.70;;;18.00;52.80;;;;;;5084967;28;20173;-54
2021/01/22 00:08:37;;;;;;;1.05;0.80;;;18.00;52.80;;;;;;5084636;28;20174;-58
2021/01/22 00:11:03;;;;;;;2.42;0.90;;;18.00;52.80;;;;;;5084536;28;20643;-56
2021/01/22 00:13:28;;;;;;;1.63;1.15;;;18.00;52.80;;;;;;5084618;28;20185;-59
2021/01/22 00:15:54;;;;;;;2.50;1.35;;;18.00;52.80;;;;;;5084417;28;20178;-59
2021/01/22 00:18:20;;;;;;;1.52;0.90;;;18.00;52.80;;;;;;5084503;28;20174;-58
2021/01/22 00:20:45;;;;;;;1.25;0.80;;;17.90;52.80;;;;;;5084458;28;20211;-59
2021/01/22 00:23:11;;;;;;;1.45;0.88;;;17.90;52.80;;;;;;5084218;28;20220;-59
2021/01/22 00:25:36;;;;;;;0.90;0.70;;;17.90;52.80;;;;;;5084784;28;20170;-58
2021/01/22 00:28:02;;;;;;;1.10;0.80;;;17.90;52.80;;;;;;5084667;28;20170;-58
2021/01/22 00:30:27;;;;;;;1.40;0.98;;;17.90;52.80;;;;;;5084430;28;20245;-57
2021/01/22 00:32:53;;;;;;;1.05;0.70;;;17.80;52.80;;;;;;5084384;28;20173;-57
2021/01/22 00:35:18;;;;;;;1.65;0.88;;;17.90;52.80;;;;;;5084671;28;20191;-58
2021/01/22 00:37:44;;;;;;;0.68;0.65;;;17.90;52.90;;;;;;5084571;28;20181;-60
2021/01/22 00:40:10;;;;;;;1.30;1.00;;;17.90;52.80;;;;;;5084444;28;20178;-58
2021/01/22 00:42:36;;;;;;;0.98;0.80;;;17.80;52.80;;;;;;5084278;28;20297;-56
2021/01/22 00:45:02;;;;;;;1.17;0.85;;;17.90;52.90;;;;;;5084289;28;20288;-59
2021/01/22 00:47:28;;;;;;;0.90;0.70;;;17.80;52.80;;;;;;5084023;28;20935;-58
2021/01/22 00:49:53;;;;;;;0.85;0.70;;;17.80;52.80;;;;;;5084028;28;20270;-58
2021/01/22 00:52:19;;;;;;;1.58;1.00;;;17.80;52.80;;;;;;5084064;28;20703;-58
2021/01/22 00:54:44;;;;;;;0.90;0.80;;;17.80;52.80;;;;;;5084328;28;20866;-57
2021/01/22 00:57:10;;;;;;;1.85;0.68;;;17.80;52.90;;;;;;5084252;28;20169;-52
2021/01/22 00:59:36;;;;;;;1.08;0.80;;;17.80;52.90;;;;;;5084282;28;20279;-55
2021/01/22 01:02:01;;;;;;;0.73;0.55;;;17.70;52.90;;;;;;5084090;28;20184;-53
2021/01/22 01:04:27;;;;;;;1.85;1.27;;;17.70;52.80;;;;;;5084037;28;20180;-54
2021/01/22 01:06:52;;;;;;;1.02;0.93;;;17.70;52.80;;;;;;5083950;28;20284;-54
2021/01/22 01:09:18;;;;;;;0.77;0.60;;;17.70;52.80;;;;;;5083751;28;20208;-57
2021/01/22 01:11:43;;;;;;;1.40;0.70;;;17.70;52.80;;;;;;5083849;28;20188;-55
2021/01/22 01:14:09;;;;;;;1.50;0.90;;;17.70;53.40;;;;;;5083667;28;20181;-53
2021/01/22 01:16:35;;;;;;;0.88;0.73;;;17.70;52.90;;;;;;5065825;28;20201;-57
2021/01/22 01:19:00;;;;;;;1.13;0.70;;;17.70;52.80;;;;;;5083744;28;20181;-55
2021/01/22 01:21:26;;;;;;;1.17;0.70;;;17.70;52.70;;;;;;5084110;28;20252;-57
2021/01/22 01:23:52;;;;;;;0.88;0.73;;;17.70;52.80;;;;;;5083714;28;20182;-55
2021/01/22 01:26:18;;;;;;;1.13;0.55;;;17.60;52.70;;;;;;5086441;28;20195;-54
2021/01/22 01:28:43;;;;;;;0.50;0.50;;;17.60;52.70;;;;;;5087855;28;20227;-58
2021/01/22 01:31:09;;;;;;;1.90;0.73;;;17.60;52.80;;;;;;5087937;28;20258;-55
2021/01/22 01:33:34;;;;;;;0.95;0.60;;;17.60;52.80;;;;;;5087517;28;20187;-56
2021/01/22 01:36:01;;;;;;;1.20;0.70;;;17.60;52.60;;;;;;5087582;28;20189;-55
2021/01/22 01:38:27;;;;;;;0.93;0.60;;;17.60;52.70;;;;;;5087295;28;20643;-55
2021/01/22 01:40:52;;;;;;;1.13;0.68;;;17.60;52.70;;;;;;5087386;28;20185;-53
2021/01/22 01:43:18;;;;;;;0.73;0.73;;;17.60;52.70;;;;;;5087502;28;20181;-55
2021/01/22 01:45:44;;;;;;;0.50;0.50;;;17.60;52.70;;;;;;5087625;28;20631;-59
2021/01/22 01:48:10;;;;;;;0.77;0.50;;;17.60;52.60;;;;;;5087808;28;20623;-56
2021/01/22 01:50:35;;;;;;;0.50;0.50;;;17.60;52.60;;;;;;5087687;28;20640;-58
2021/01/22 01:53:02;;;;;;;0.68;0.68;;;17.50;53.30;;;;;;5069435;28;20201;-53
2021/01/22 01:55:28;;;;;;;0.47;0.40;;;17.50;52.60;;;;;;5069673;28;20213;-59
2021/01/22 01:57:53;;;;;;;0.95;0.60;;;17.60;52.70;;;;;;5069487;28;20205;-58
2021/01/22 02:00:19;;;;;;;0.45;0.40;;;17.50;52.60;;;;;;5069176;28;20181;-53
2021/01/22 02:02:45;;;;;;;0.93;0.70;;;17.50;52.60;;;;;;5069481;28;20325;-56
2021/01/22 02:05:11;;;;;;;0.40;0.40;;;17.50;52.60;;;;;;5069142;28;20694;-59
2021/01/22 02:07:37;;;;;;;0.40;0.40;;;17.50;52.70;;;;;;5087102;28;20185;-59
2021/01/22 02:10:03;;;;;;;0.50;0.50;;;17.50;52.60;;;;;;5087168;28;20559;-58
2021/01/22 02:12:29;;;;;;;0.63;0.57;;;17.50;52.60;;;;;;5068972;28;20544;-56
2021/01/22 02:14:54;;;;;;;0.70;0.70;;;17.50;52.60;;;;;;5069055;28;20174;-53
2021/01/22 02:17:20;;;;;;;0.68;0.57;;;17.40;52.60;;;;;;5068884;28;20177;-54
2021/01/22 02:20:07;;;;;;;0.68;0.68;;;17.40;52.60;;;;;;5069020;28;20236;-57
2021/01/22 02:22:32;;;;;;;0.65;0.60;;;17.40;52.50;;;;;;5086566;28;20182;-60
2021/01/22 02:24:58;;;;;;;0.63;0.40;;;17.40;52.50;;;;;;5086901;28;21011;-55
2021/01/22 02:27:23;;;;;;;0.95;0.65;;;17.40;52.50;;;;;;5068889;28;20177;-53
2021/01/22 02:29:49;;;;;;;0.88;0.57;;;17.40;52.50;;;;;;5068540;28;20213;-53
2021/01/22 02:32:14;;;;;;;0.60;0.60;;;17.40;52.60;;;;;;5068227;28;20208;-50
2021/01/22 02:34:42;;;;;;;0.60;0.50;;;17.40;52.50;;;;;;5068439;28;20647;-57
2021/01/22 02:37:10;;;;;;;1.10;0.70;;;17.40;52.60;;;;;;5085619;28;20204;-53
2021/01/22 02:39:43;;;;;;;0.43;0.43;;;17.30;52.40;;;;;;5086479;28;20194;-54
2021/01/22 02:42:08;;;;;;;0.80;0.50;;;17.30;52.50;;;;;;5068398;28;20174;-54
2021/01/22 02:44:35;;;;;;;0.40;0.40;;;17.40;52.40;;;;;;5068694;28;20600;-55
2021/01/22 02:47:01;;;;;;;0.60;0.60;;;17.40;52.40;;;;;;5068362;28;20169;-53
2021/01/22 02:49:26;;;;;;;0.60;0.60;;;17.30;52.40;;;;;;5068047;28;20197;-58
2021/01/22 02:51:52;;;;;;;0.70;0.70;;;17.30;52.40;;;;;;5068047;28;20243;-54
2021/01/22 02:54:17;;;;;;;0.95;0.50;;;17.40;52.40;;;;;;5086026;28;20170;-55
2021/01/22 02:57:06;;;;;;;0.50;0.50;;;17.30;52.40;;;;;;5086105;28;20266;-54
2021/01/22 02:59:51;;;;;;;0.93;0.77;;;17.30;52.40;;;;;;5086095;28;20180;-57
2021/01/22 03:02:21;;;;;;;0.68;0.40;;;17.30;52.40;;;;;;5086180;28;20206;-59
2021/01/22 03:04:47;;;;;;;0.45;0.43;;;17.30;52.40;;;;;;5068361;28;20170;-56
2021/01/22 03:07:17;;;;;;;0.52;0.52;;;17.20;52.20;;;;;;5068377;28;20174;-54
2021/01/22 03:09:43;;;;;;;0.40;0.40;;;17.30;52.30;;;;;;5067861;28;20198;-56
2021/01/22 03:12:09;;;;;;;0.40;0.40;;;17.30;52.30;;;;;;5067585;28;20174;-57
2021/01/22 03:14:35;;;;;;;0.63;0.55;;;17.30;52.30;;;;;;5085761;28;20181;-57
2021/01/22 03:17:00;;;;;;;0.40;0.40;;;17.20;52.20;;;;;;5067652;28;20185;-52
2021/01/22 03:19:26;;;;;;;1.13;0.80;;;17.20;52.30;;;;;;5067725;28;20276;-57
2021/01/22 03:21:51;;;;;;;0.30;0.30;;;17.20;52.30;;;;;;5085962;28;20162;-58
2021/01/22 03:24:17;;;;;;;1.05;0.60;;;17.20;52.30;;;;;;5085710;28;20692;-57
2021/01/22 03:26:42;;;;;;;0.68;0.57;;;17.20;52.20;;;;;;5085545;28;20182;-56
2021/01/22 03:29:08;;;;;;;0.60;0.60;;;17.20;52.20;;;;;;5085359;28;20564;-57
2021/01/22 03:31:33;;;;;;;0.40;0.40;;;17.20;52.20;;;;;;5085403;28;20238;-54
2021/01/22 03:33:59;;;;;;;0.98;0.60;;;17.20;52.20;;;;;;5085529;28;20177;-55
2021/01/22 03:36:24;;;;;;;0.70;0.70;;;17.10;52.20;;;;;;5085211;28;20170;-58
2021/01/22 03:38:50;;;;;;;0.95;0.60;;;17.00;52.10;;;;;;5085466;28;20173;-55
2021/01/22 03:41:16;;;;;;;0.68;0.68;;;17.10;52.10;;;;;;5085321;28;20185;-59
2021/01/22 03:43:41;;;;;;;0.50;0.50;;;17.20;52.10;;;;;;5085288;28;20234;-56
2021/01/22 03:46:07;;;;;;;0.95;0.85;;;17.10;52.20;;;;;;5085286;28;20548;-57
2021/01/22 03:48:32;;;;;;;0.60;0.60;;;17.10;52.10;;;;;;5084930;28;20186;-57
2021/01/22 03:50:58;;;;;;;1.08;0.82;;;17.10;52.10;;;;;;5085180;28;20305;-55
2021/01/22 03:53:23;;;;;;;0.63;0.63;;;17.10;52.10;;;;;;5084771;28;20325;-55
2021/01/22 03:55:50;;;;;;;0.80;0.65;;;17.10;52.10;;;;;;5084965;28;20173;-53
2021/01/22 03:58:16;;;;;;;1.00;0.40;;;17.10;52.10;;;;;;5084741;28;20213;-55
2021/01/22 04:00:42;;;;;;;1.27;0.63;;;17.10;52.10;;;;;;5085072;28;20262;-54
2021/01/22 04:03:08;;;;;;;0.60;0.57;;;17.10;52.10;;;;;;5066986;28;20193;-54
2021/01/22 04:05:33;;;;;;;0.65;0.60;;;17.10;52.10;;;;;;5084738;28;20976;-54
2021/01/22 04:07:59;;;;;;;0.50;0.50;;;17.10;52.00;;;;;;5084762;28;21112;-55
2021/01/22 04:10:24;;;;;;;0.70;0.52;;;17.00;52.00;;;;;;5084602;28;20295;-56
2021/01/22 04:12:50;;;;;;;0.40;0.40;;;17.00;51.90;;;;;;5084647;28;20204;-52
2021/01/22 04:15:15;;;;;;;0.55;0.55;;;17.00;51.90;;;;;;5084768;28;20182;-53
2021/01/22 04:17:41;;;;;;;0.68;0.50;;;17.00;51.90;;;;;;5084390;28;20181;-54
2021/01/22 04:20:07;;;;;;;0.75;0.60;;;17.00;51.90;;;;;;5084091;28;20186;-55
2021/01/22 04:22:32;;;;;;;0.75;0.68;;;17.00;51.90;;;;;;5084682;28;20178;-59
2021/01/22 04:24:58;;;;;;;1.45;0.68;;;17.00;51.90;;;;;;5084560;28;20176;-56
2021/01/22 04:27:23;;;;;;;0.50;0.50;;;17.00;51.90;;;;;;5084620;28;20173;-56
2021/01/22 04:29:49;;;;;;;0.63;0.55;;;17.00;51.90;;;;;;5084465;28;20300;-57
2021/01/22 04:32:15;;;;;;;1.02;0.73;;;16.90;51.90;;;;;;5084024;28;20518;-52
2021/01/22 04:34:40;;;;;;;0.50;0.50;;;16.90;51.90;;;;;;5084603;28;20180;-57
2021/01/22 04:37:06;;;;;;;0.73;0.50;;;16.90;51.80;;;;;;5084142;28;20166;-53
2021/01/22 04:39:32;;;;;;;0.40;0.40;;;16.90;51.90;;;;;;5084394;28;20631;-56
2021/01/22 04:41:58;;;;;;;0.40;0.40;;;17.00;51.90;;;;;;5084021;28;20166;-56
2021/01/22 04:44:23;;;;;;;0.60;0.50;;;16.90;51.80;;;;;;5066541;28;20169;-55
2021/01/22 04:46:49;;;;;;;0.50;0.50;;;16.90;51.80;;;;;;5084203;28;20527;-53
2021/01/22 04:49:14;;;;;;;0.95;0.52;;;16.90;51.80;;;;;;5066457;28;20560;-57
2021/01/22 04:51:40;;;;;;;0.40;0.40;;;16.90;51.80;;;;;;5066427;28;20208;-57
2021/01/22 04:54:10;;;;;;;0.75;0.60;;;16.90;51.80;;;;;;5066796;28;20200;-52
2021/01/22 04:56:38;;;;;;;0.60;0.50;;;16.90;51.80;;;;;;5066135;28;20525;-56
2021/01/22 04:59:06;;;;;;;0.73;0.60;;;16.90;51.80;;;;;;5066195;28;20174;-50
2021/01/22 05:01:32;;;;;;;0.60;0.60;;;16.90;51.80;;;;;;5087075;28;20637;-52
2021/01/22 05:03:58;;;;;;;0.40;0.35;;;16.90;51.80;;;;;;5070463;28;20248;-54
2021/01/22 05:06:24;;;;;;;0.55;0.43;;;16.90;51.80;;;;;;5087833;28;20646;-55
2021/01/22 05:08:52;;;;;;;0.50;0.50;;;16.90;51.70;;;;;;5088222;28;20526;-52
2021/01/22 05:11:17;;;;;;;0.82;0.40;;;16.80;51.70;;;;;;5070472;28;20715;-59
2021/01/22 05:13:43;;;;;;;1.05;0.50;;;16.80;51.70;;;;;;5088190;28;20248;-53
2021/01/22 05:16:13;;;;;;;0.82;0.52;;;16.80;51.70;;;;;;5088091;28;20201;-55
2021/01/22 05:18:38;;;;;;;0.52;0.52;;;16.80;51.70;;;;;;5088002;28;20766;-57
2021/01/22 05:21:11;;;;;;;0.60;0.55;;;16.80;51.70;;;;;;5087911;28;20177;-57
2021/01/22 05:23:38;;;;;;;0.82;0.50;;;16.80;51.60;;;;;;5070014;28;20294;-56
2021/01/22 05:26:11;;;;;;;0.40;0.40;;;16.80;51.70;;;;;;5087561;28;20273;-53
2021/01/22 05:28:42;;;;;;;0.95;0.68;;;16.80;51.70;;;;;;5087979;28;20188;-52
2021/01/22 05:31:08;;;;;;;0.52;0.40;;;16.70;51.70;;;;;;5087882;28;20254;-55
2021/01/22 05:33:35;;;;;;;0.65;0.63;;;16.80;51.70;;;;;;5069672;28;20228;-56
2021/01/22 05:36:26;;;;;;;0.65;0.50;;;16.70;51.70;;;;;;5087899;28;20173;-56
2021/01/22 05:38:52;;;;;;;0.68;0.60;;;16.70;51.70;;;;;;5087661;28;20635;-58
2021/01/22 05:41:18;;;;;;;0.50;0.50;;;16.70;51.70;;;;;;5087927;28;20169;-55
2021/01/22 05:43:43;;;;;;;0.93;0.57;;;16.70;51.70;;;;;;5087671;28;20983;-55
2021/01/22 05:46:14;;;;;;;0.70;0.70;;;16.70;51.70;;;;;;5087501;28;20253;-53
2021/01/22 05:48:40;;;;;;;0.85;0.77;;;16.70;51.80;;;;;;5087750;28;20166;-52
2021/01/22 05:51:06;;;;;;;0.70;0.50;;;16.70;51.70;;;;;;5087730;28;20181;-55
2021/01/22 05:53:32;;;;;;;0.75;0.70;;;16.70;51.70;;;;;;5087079;28;20624;-58
2021/01/22 05:56:07;;;;;;;1.00;0.88;;;16.70;51.70;;;;;;5087367;28;20185;-55
2021/01/22 05:58:32;;;;;;;1.10;1.00;;;16.70;51.70;;;;;;5086604;28;20541;-55
2021/01/22 06:01:15;;;;;;;0.60;0.60;;;16.70;51.70;;;;;;5087139;28;20236;-57
2021/01/22 06:03:45;;;;;;;0.70;0.70;;;16.60;51.80;;;;;;5086993;28;20220;-53
2021/01/22 06:06:11;;;;;;;0.60;0.60;;;16.70;51.90;;;;;;5087249;28;20296;-57
2021/01/22 06:08:50;;;;;;;0.57;0.57;;;16.70;52.60;;;;;;5087276;28;20954;-53
2021/01/22 06:11:17;;;;;;;0.63;0.63;;;16.80;52.10;;;;;;5086760;28;20212;-57
2021/01/22 06:13:45;;;;;;;1.55;0.73;;;16.90;52.00;;;;;;5086257;28;20257;-58
2021/01/22 06:16:10;;;;;;;1.35;0.80;;;17.00;51.80;;;;;;5087025;28;20627;-59
2021/01/22 06:18:36;;;;;;;0.57;0.55;;;17.10;51.70;;;;;;5068879;28;20195;-55
2021/01/22 06:21:10;;;;;;;0.70;0.70;;;17.30;51.60;;;;;;5068855;28;20201;-56
2021/01/22 06:23:35;;;;;;;1.05;0.80;;;17.40;51.40;;;;;;5068688;28;20170;-54
2021/01/22 06:26:03;;;;;;;0.50;0.50;;;17.50;51.20;;;;;;5068684;28;20174;-58
2021/01/22 06:28:28;;;;;;;2.55;1.00;;;17.70;51.10;;;;;;5086825;28;20994;-57
2021/01/22 06:30:54;;;;;;;0.98;0.90;;;17.70;50.90;;;;;;5068678;28;20217;-52
2021/01/22 06:33:19;;;;;;;0.90;0.73;;;17.80;50.80;;;;;;5068762;28;20170;-56
2021/01/22 06:35:45;;;;;;;0.82;0.82;;;17.90;50.60;;;;;;5068767;28;20174;-54
2021/01/22 06:38:11;;;;;;;0.73;0.73;;;18.00;50.30;;;;;;5068679;28;20536;-55
2021/01/22 06:40:37;;;;;;;0.55;0.55;;;18.10;50.20;;;;;;5068255;28;20185;-52
2021/01/22 06:43:03;;;;;;;0.60;0.50;;;18.20;50.00;;;;;;5086429;28;20585;-53
2021/01/22 06:45:28;;;;;;;0.60;0.60;;;18.30;50.00;;;;;;5086423;28;20170;-59
2021/01/22 06:47:58;;;;;;;1.73;0.90;;;18.30;49.90;;;;;;5068433;28;20680;-57
2021/01/22 06:50:24;;;;;;;0.73;0.50;;;18.30;49.80;;;;;;5068427;28;20201;-57
2021/01/22 06:53:09;;;;;;;0.93;0.70;;;18.40;49.80;;;;;;5085701;28;20676;-56
2021/01/22 06:55:54;;;;;;;0.70;0.70;;;18.40;49.70;;;;;;5086106;28;20200;-56
2021/01/22 06:58:32;;;;;;;0.50;0.50;;;18.30;49.80;;;;;;5085987;28;20913;-55
2021/01/22 07:00:59;;;;;;;2.47;1.00;;;18.30;50.00;;;;;;5086242;28;20275;-58
2021/01/22 07:03:36;;;;;;;0.80;0.80;;;18.20;50.10;;;;;;5086216;28;20636;-58
2021/01/22 07:06:05;;;;;;;2.05;1.02;;;18.10;50.20;;;;;;5085982;28;20177;-56
2021/01/22 07:08:49;;;;;;;1.13;0.88;;;18.10;50.40;;;;;;5067814;28;20181;-53
2021/01/22 07:11:15;;;;;;;0.80;0.80;;;18.00;50.60;;;;;;5085629;28;20190;-58
2021/01/22 07:13:46;;;;;;;1.52;1.10;;;17.90;50.70;;;;;;5085884;28;20650;-59
2021/01/22 07:16:17;;;;;;;0.73;0.73;;;17.80;50.80;;;;;;5085477;28;20182;-56
2021/01/22 07:18:58;;;;;;;0.65;0.65;;;17.80;50.90;;;;;;5085604;28;20170;-59
2021/01/22 07:21:37;;;;;;;0.80;0.80;;;17.70;50.90;;;;;;5086062;28;20173;-58
2021/01/22 07:24:04;;;;;;;0.70;0.70;;;17.60;51.10;;;;;;5085194;28;20181;-57
2021/01/22 07:26:34;;;;;;;1.33;0.70;;;17.60;51.20;;;;;;5085197;28;20177;-55
2021/01/22 07:29:14;;;;;;;1.88;0.90;;;17.50;51.10;;;;;;5084909;28;21017;-54
2021/01/22 07:32:11;;;;;;;0.77;0.77;;;17.50;51.20;;;;;;5085889;28;20173;-57
2021/01/22 07:34:37;;;;;;;1.30;1.20;;;17.40;51.20;;;;;;5069008;28;20193;-59
2021/01/22 07:37:09;;;;;;;1.20;1.10;;;17.40;51.30;;;;;;5085566;28;20169;-58
2021/01/22 07:39:35;;;;;;;1.00;0.90;;;17.30;51.40;;;;;;5085271;28;20173;-58
2021/01/22 07:42:18;;;;;;;0.82;0.82;;;17.40;51.60;;;;;;5085564;28;20169;-55
2021/01/22 07:44:45;;;;;;;1.25;1.10;;;17.40;51.30;;;;;;5085276;28;20174;-60
2021/01/22 07:47:22;;;;;;;1.52;1.08;;;17.40;51.20;;;;;;5085053;28;20176;-59
2021/01/22 07:49:53;;;;;;;1.50;1.17;;;17.40;51.20;;;;;;5085302;28;20197;-58
2021/01/22 07:52:19;;;;;;;1.17;0.98;;;17.40;51.20;;;;;;5084879;28;20178;-59
2021/01/22 07:54:44;;;;;;;1.33;1.00;;;17.40;51.20;;;;;;5066671;28;20185;-57
2021/01/22 07:57:19;;;;;;;1.23;1.00;;;17.40;51.20;;;;;;5067329;28;20178;-54
2021/01/22 07:59:46;;;;;;;1.38;1.20;;;17.40;51.30;;;;;;5084840;28;20179;-57
2021/01/22 08:02:22;;;;;;;1.48;1.30;;;17.40;51.40;;;;;;5084467;28;20891;-58
2021/01/22 08:05:00;;;;;;;0.95;0.95;;;17.30;51.50;;;;;;5084916;28;20533;-56
2021/01/22 08:07:36;;;;;;;0.85;0.85;;;17.30;51.50;;;;;;5084991;28;20207;-58
2021/01/22 08:10:06;;;;;;;1.15;1.10;;;17.30;51.50;;;;;;5084114;28;20209;-56
2021/01/22 08:12:32;;;;;;;1.30;1.20;;;17.30;51.60;;;;;;5085053;28;20178;-57
2021/01/22 08:14:57;;;;;;;2.40;1.38;;;17.20;51.50;;;;;;5084683;28;20280;-57
2021/01/22 08:17:23;;;;;;;0.95;0.80;;;17.20;51.50;;;;;;5084417;28;20166;-57
2021/01/22 08:19:48;;;;;;;1.02;1.00;;;17.20;51.50;;;;;;5066235;28;20181;-59
2021/01/22 08:22:17;;;;;;;1.48;1.10;;;17.20;51.50;;;;;;5067204;28;20173;-57
2021/01/22 08:24:50;;;;;;;1.48;1.08;;;17.10;51.50;;;;;;5084209;28;20182;-65
2021/01/22 08:27:15;;;;;;;1.42;1.17;;;17.10;52.00;;;;;;5084499;28;20269;-59
2021/01/22 08:29:42;;;;;;;1.20;1.10;;;17.10;51.90;;;;;;5084858;28;20255;-61
2021/01/22 08:32:09;;;;;;;2.03;1.27;;;17.10;52.00;;;;;;5066658;28;20170;-62
2021/01/22 08:34:35;;;;;;;1.35;1.25;;;17.10;52.00;;;;;;5084030;28;20177;-67
2021/01/22 08:37:00;;;;;;;1.48;1.10;;;17.20;52.10;;;;;;5065690;28;20222;-65
2021/01/22 08:39:26;;;;;;;1.35;1.10;;;17.20;52.10;;;;;;5084576;28;20181;-64
2021/01/22 08:41:52;;;;;;;1.85;1.27;;;17.20;52.10;;;;;;5066263;28;20184;-64
2021/01/22 08:44:17;;;;;;;1.67;1.02;;;17.30;52.20;;;;;;5084545;28;20170;-63
2021/01/22 08:46:50;;;;;;;0.98;0.98;;;17.20;52.10;;;;;;5066278;28;20915;-63
2021/01/22 08:49:16;;;;;;;3.15;1.40;;;17.30;52.20;;;;;;5067118;28;20543;-65
2021/01/22 08:51:42;;;;;;;2.08;1.40;;;17.30;52.30;;;;;;5084261;28;20232;-64
2021/01/22 08:54:07;;;;;;;3.22;1.42;;;17.30;52.40;;;;;;5084499;28;20170;-64
2021/01/22 08:56:33;;;;;;;2.13;1.30;;;17.30;52.90;;;;;;5066318;28;20232;-64
2021/01/22 08:59:09;;;;;;;2.10;1.23;;;17.30;52.90;;;;;;5066086;28;20220;-61
2021/01/22 09:01:55;;;;;;;1.15;1.00;;;17.20;52.90;;;;;;5066490;28;20231;-61
2021/01/22 09:04:22;;;;;;;2.80;1.38;;;17.20;52.80;;;;;;5066258;28;20581;-60
2021/01/22 09:06:48;;;;;;;2.30;1.20;;;17.30;52.80;;;;;;5083744;28;20204;-60
2021/01/22 09:09:14;;;;;;;2.22;1.42;;;17.30;52.70;;;;;;5084092;28;20201;-61
2021/01/22 09:11:40;;;;;;;1.75;0.95;;;17.30;52.70;;;;;;5084146;28;20704;-60
2021/01/22 09:14:05;;;;;;;3.22;1.15;;;17.30;52.70;;;;;;5083990;28;20212;-61
2021/01/22 09:16:31;;;;;;;1.70;1.02;;;17.40;52.70;;;;;;5084233;28;20181;-60
2021/01/22 09:19:00;;;;;;;1.50;1.08;;;17.30;52.70;;;;;;5083795;28;20182;-61
2021/01/22 09:21:25;;;;;;;1.73;1.27;;;17.30;52.70;;;;;;5083955;28;20265;-61
2021/01/22 09:23:51;;;;;;;2.80;1.58;;;17.40;52.90;;;;;;5084079;28;20284;-62
2021/01/22 09:26:16;;;;;;;2.47;1.20;;;17.40;53.30;;;;;;5084057;28;20174;-63
2021/01/22 09:28:42;;;;;;;2.22;1.60;;;17.40;53.30;;;;;;5084011;28;20279;-62
2021/01/22 09:31:08;;;;;;;2.47;1.50;;;17.30;53.30;;;;;;5083611;28;20228;-61
2021/01/22 09:33:33;;;;;;;3.45;1.48;;;17.30;53.20;;;;;;5083812;28;20178;-61
2021/01/22 09:35:59;;;;;;;2.55;1.20;;;17.40;53.80;;;;;;5065534;28;20178;-61
2021/01/22 09:38:25;;;;;;;3.28;1.17;;;17.50;53.00;;;;;;5083862;28;20686;-62
2021/01/22 09:40:51;;;;;;;2.65;1.17;;;17.60;52.90;;;;;;5083359;28;20185;-62
2021/01/22 09:43:17;;;;;;;3.03;1.55;;;17.80;52.60;;;;;;5083069;28;20170;-62
2021/01/22 09:45:44;;;;;;;2.22;1.00;;;18.10;52.30;;;;;;5082900;28;20173;-61
2021/01/22 09:48:09;;;;;;;1.83;1.20;;;18.40;51.80;;;;;;5068415;28;20189;-62
2021/01/22 09:50:35;;;;;;;2.08;1.08;;;18.70;51.30;;;;;;5086613;28;20383;-61
2021/01/22 09:53:00;;;;;;;1.35;1.00;;;18.90;50.90;;;;;;5086570;28;20174;-62
2021/01/22 09:55:26;;;;;;;2.92;0.88;;;19.20;50.50;;;;;;5086387;28;20193;-62
2021/01/22 09:57:52;;;;;;;3.00;0.98;;;19.40;50.00;;;;;;5086491;28;20864;-61
2021/01/22 10:00:17;;;;;;;1.55;0.90;;;19.60;49.80;;;;;;5086542;28;20201;-62
2021/01/22 10:02:43;;;;;;;1.77;1.20;;;19.60;49.70;;;;;;5087061;28;20208;-62
2021/01/22 10:05:09;;;;;;;2.30;1.17;;;19.60;49.60;;;;;;5069041;28;20252;-60
2021/01/22 10:07:35;;;;;;;1.08;1.02;;;19.60;49.70;;;;;;5087193;28;20182;-63
2021/01/22 10:10:00;;;;;;;2.75;0.90;;;19.60;49.80;;;;;;5086814;28;20201;-61
2021/01/22 10:12:26;;;;;;;2.63;0.90;;;19.60;49.80;;;;;;5086886;28;20221;-64
2021/01/22 10:14:52;;;;;;;1.65;1.00;;;19.60;49.90;;;;;;5068437;28;20174;-62
2021/01/22 10:17:17;;;;;;;1.63;0.93;;;19.60;50.00;;;;;;5085538;28;20186;-61
2021/01/22 10:19:43;;;;;;;6.35;1.20;;;19.60;50.10;;;;;;5077237;28;20201;-62
2021/01/22 10:22:08;;;;;;;1.88;1.00;;;19.50;50.20;;;;;;5078272;28;20260;-63
2021/01/22 10:24:34;;;;;;;1.13;0.88;;;19.50;50.30;;;;;;5107314;28;20217;-63
2021/01/22 10:26:59;;;;;;;1.95;1.10;;;19.50;50.50;;;;;;5091882;28;20174;-64
2021/01/22 10:29:25;;;;;;;1.33;0.90;;;19.40;50.60;;;;;;5086503;28;20245;-63
2021/01/22 10:31:51;;;;;;;1.60;1.23;;;19.40;50.70;;;;;;5086660;28;20228;-61
2021/01/22 10:34:16;;;;;;;1.60;0.90;;;19.30;50.70;;;;;;5090507;28;20189;-63
2021/01/22 10:36:42;;;;;;;1.65;1.00;;;19.30;50.80;;;;;;5107232;28;20169;-62
2021/01/22 10:39:07;;;;;;;1.13;0.90;;;19.30;50.90;;;;;;5107013;28;20180;-62
2021/01/22 10:41:33;;;;;;;2.05;1.40;;;19.30;51.00;;;;;;5106826;28;20173;-63
2021/01/22 10:43:59;;;;;;;1.08;0.98;;;19.30;51.00;;;;;;5106679;28;20539;-62
2021/01/22 10:46:24;;;;;;;1.63;1.13;;;19.30;51.00;;;;;;5106378;28;20173;-62
2021/01/22 10:48:50;;;;;;;1.20;0.93;;;19.30;51.00;;;;;;5089126;28;20211;-62
2021/01/22 10:51:16;;;;;;;2.90;1.33;;;19.30;51.00;;;;;;5103124;28;20601;-61
2021/01/22 10:53:41;;;;;;;1.35;0.98;;;19.30;51.10;;;;;;5086285;28;20639;-62
2021/01/22 10:56:07;;;;;;;2.63;1.27;;;19.20;51.10;;;;;;5085970;28;20170;-63
2021/01/22 10:58:33;;;;;;;1.75;0.95;;;19.30;51.10;;;;;;5085510;28;20177;-63
2021/01/22 11:00:58;;;;;;;1.17;1.05;;;19.30;51.10;;;;;;5086124;28;20185;-62
2021/01/22 11:03:24;;;;;;;2.13;0.80;;;19.30;51.10;;;;;;5086560;28;20967;-61
2021/01/22 11:05:50;;;;;;;1.52;0.93;;;19.30;51.10;;;;;;5085951;28;20542;-61
2021/01/22 11:08:15;;;;;;;1.52;0.90;;;19.30;51.10;;;;;;5068026;28;20280;-63
2021/01/22 11:10:41;;;;;;;1.50;0.90;;;19.20;51.20;;;;;;5086036;28;20201;-62
2021/01/22 11:13:06;;;;;;;1.13;0.93;;;19.20;51.20;;;;;;5085780;28;20181;-62
2021/01/22 11:15:34;;;;;;;1.38;0.95;;;19.10;51.40;;;;;;5067597;28;20302;-62
2021/01/22 11:18:00;;;;;;;1.40;0.90;;;19.00;51.40;;;;;;5085430;28;20177;-63
2021/01/22 11:20:26;;;;;;;2.80;1.08;;;19.00;51.50;;;;;;5085502;28;20178;-63
2021/01/22 11:22:51;;;;;;;2.20;1.10;;;19.00;51.60;;;;;;5085438;28;20186;-64
2021/01/22 11:25:17;;;;;;;2.25;1.25;;;18.90;51.60;;;;;;5088021;28;20887;-63
2021/01/22 11:27:43;;;;;;;1.70;1.10;;;18.90;51.70;;;;;;5105975;28;20945;-63
2021/01/22 11:30:10;;;;;;;2.25;1.25;;;18.90;51.70;;;;;;5087297;28;20315;-63
2021/01/22 11:32:35;;;;;;;3.92;1.10;;;18.90;51.70;;;;;;5105629;28;20289;-64
2021/01/22 11:35:01;;;;;;;2.30;0.95;;;18.90;51.60;;;;;;5105507;28;20576;-63
2021/01/22 11:37:27;;;;;;;1.55;1.20;;;18.90;51.60;;;;;;5105627;28;20165;-66
2021/01/22 11:39:52;;;;;;;3.20;1.27;;;19.00;51.60;;;;;;5105777;28;20180;-63
2021/01/22 11:42:18;;;;;;;3.15;1.10;;;19.10;51.50;;;;;;5105491;28;20249;-60
2021/01/22 11:44:44;;;;;;;1.30;0.90;;;19.10;51.50;;;;;;5105590;28;20177;-63
2021/01/22 11:47:09;;;;;;;3.08;1.10;;;19.20;51.50;;;;;;5105089;28;20169;-63
2021/01/22 11:49:35;;;;;;;2.72;1.45;;;19.10;51.40;;;;;;5105272;28;20209;-59
2021/01/22 11:52:00;;;;;;;4.47;1.20;;;19.10;51.40;;;;;;5105438;28;20192;-61
2021/01/22 11:54:26;;;;;;;1.10;1.00;;;19.20;52.00;;;;;;5105372;28;20179;-65
2021/01/22 11:56:52;;;;;;;2.33;1.05;;;19.10;51.60;;;;;;5105238;28;20169;-63
2021/01/22 11:59:18;;;;;;;3.85;1.40;;;19.10;51.60;;;;;;5086427;28;20181;-62
2021/01/22 12:01:44;;;;;;;2.28;1.15;;;19.00;51.60;;;;;;5084356;28;20174;-62
2021/01/22 12:04:09;;;;;;;3.22;1.00;;;19.00;51.70;;;;;;5084978;28;20648;-62
2021/01/22 12:06:35;;;;;;;3.42;0.90;;;19.00;51.80;;;;;;5085014;28;20579;-63
2021/01/22 12:09:00;;;;;;;2.65;0.98;;;19.00;51.70;;;;;;5084698;28;20174;-60
2021/01/22 12:11:28;;;;;;;2.75;1.00;;;19.00;51.60;;;;;;5083901;28;20248;-62
2021/01/22 12:13:54;;;;;;;3.22;1.17;;;19.10;51.50;;;;;;5084562;28;20219;-62
2021/01/22 12:16:20;;;;;;;2.38;1.17;;;19.10;51.40;;;;;;5084567;28;20235;-61
2021/01/22 12:18:45;;;;;;;1.40;0.88;;;19.10;51.30;;;;;;5084921;28;20631;-60
2021/01/22 12:21:11;;;;;;;3.80;1.10;;;19.10;51.30;;;;;;5084478;28;20177;-56
2021/01/22 12:23:36;;;;;;;3.33;1.13;;;19.10;51.40;;;;;;5084469;28;20194;-60
2021/01/22 12:26:02;;;;;;;3.70;1.10;;;19.10;51.40;;;;;;5093256;28;20169;-60
2021/01/22 12:28:28;;;;;;;2.55;1.20;;;19.10;51.40;;;;;;5104987;28;20181;-60
2021/01/22 12:30:54;;;;;;;1.90;1.00;;;19.00;51.50;;;;;;5104902;28;20212;-59
2021/01/22 12:33:19;;;;;;;4.57;1.30;;;18.90;51.60;;;;;;5105179;28;20736;-60
2021/01/22 12:35:49;;;;;;;2.22;1.17;;;19.00;51.40;;;;;;5104690;28;20173;-59
2021/01/22 12:38:18;;;;;;;1.77;1.10;;;19.00;51.50;;;;;;5104899;28;20265;-59
2021/01/22 12:40:44;;;;;;;1.73;1.35;;;19.00;51.60;;;;;;5104795;28;20190;-61
2021/01/22 12:43:09;;;;;;;1.38;0.85;;;18.90;51.70;;;;;;5104288;28;20169;-61
2021/01/22 12:45:35;;;;;;;2.35;1.00;;;18.90;51.60;;;;;;5104480;28;20189;-60
2021/01/22 12:48:01;;;;;;;3.85;1.30;;;19.00;51.70;;;;;;5104565;28;20177;-60